sensor_id;sensor_type;location;lat;lon;timestamp;P1;durP1;ratioP1;P2;durP2;ratioP2
70049;SDS011;57391;51.306;22.680;2024-03-06T00:00:11;52.90;;;25.90;;
70049;SDS011;57391;51.306;22.680;2024-03-06T00:02:35;51.70;;;26.00;;
70049;SDS011;57391;51.306;22.680;2024-03-06T00:04:37;60.20;;;29.30;;
70049;SDS011;57391;51.306;22.680;2024-03-06T00:06:40;70.60;;;31.80;;
70049;SDS011;57391;51.306;22.680;2024-03-06T00:08:42;64.10;;;30.40;;
70049;SDS011;57391;51.306;22.680;2024-03-06T00:10:44;54.30;;;28.00;;
70049;SDS011;57391;51.306;22.680;2024-03-06T00:12:47;46.40;;;22.90;;
70049;SDS011;57391;51.306;22.680;2024-03-06T00:14:49;41.50;;;22.90;;
70049;SDS011;57391;51.306;22.680;2024-03-06T00:16:51;44.00;;;21.90;;
70049;SDS011;57391;51.306;22.680;2024-03-06T00:18:54;44.50;;;23.10;;
70049;SDS011;57391;51.306;22.680;2024-03-06T00:20:56;57.70;;;26.10;;
70049;SDS011;57391;51.306;22.680;2024-03-06T00:22:58;104.70;;;39.50;;
70049;SDS011;57391;51.306;22.680;2024-03-06T00:25:01;89.00;;;35.10;;
70049;SDS011;57391;51.306;22.680;2024-03-06T00:27:03;68.70;;;29.90;;
70049;SDS011;57391;51.306;22.680;2024-03-06T00:29:06;46.30;;;23.50;;
70049;SDS011;57391;51.306;22.680;2024-03-06T00:31:08;40.80;;;21.70;;
70049;SDS011;57391;51.306;22.680;2024-03-06T00:33:10;38.40;;;19.90;;
70049;SDS011;57391;51.306;22.680;2024-03-06T00:35:12;36.00;;;19.80;;
70049;SDS011;57391;51.306;22.680;2024-03-06T00:37:14;39.00;;;22.10;;
70049;SDS011;57391;51.306;22.680;2024-03-06T00:39:16;51.10;;;26.40;;
70049;SDS011;57391;51.306;22.680;2024-03-06T00:41:17;48.20;;;27.80;;
70049;SDS011;57391;51.306;22.680;2024-03-06T00:43:20;46.00;;;29.00;;
70049;SDS011;57391;51.306;22.680;2024-03-06T00:45:22;41.60;;;24.40;;
70049;SDS011;57391;51.306;22.680;2024-03-06T00:47:24;37.20;;;20.50;;
70049;SDS011;57391;51.306;22.680;2024-03-06T00:49:27;30.00;;;17.60;;
70049;SDS011;57391;51.306;22.680;2024-03-06T00:51:29;30.50;;;16.90;;
70049;SDS011;57391;51.306;22.680;2024-03-06T00:53:31;29.00;;;17.90;;
70049;SDS011;57391;51.306;22.680;2024-03-06T00:55:34;29.50;;;18.20;;
70049;SDS011;57391;51.306;22.680;2024-03-06T00:57:36;26.20;;;14.70;;
70049;SDS011;57391;51.306;22.680;2024-03-06T00:59:38;23.90;;;13.60;;
70049;SDS011;57391;51.306;22.680;2024-03-06T01:01:41;26.30;;;14.30;;
70049;SDS011;57391;51.306;22.680;2024-03-06T01:03:43;23.90;;;13.20;;
70049;SDS011;57391;51.306;22.680;2024-03-06T01:05:46;21.70;;;13.60;;
70049;SDS011;57391;51.306;22.680;2024-03-06T01:07:48;24.20;;;14.50;;
70049;SDS011;57391;51.306;22.680;2024-03-06T01:09:50;26.30;;;14.10;;
70049;SDS011;57391;51.306;22.680;2024-03-06T01:11:52;25.30;;;14.50;;
70049;SDS011;57391;51.306;22.680;2024-03-06T01:13:55;24.90;;;14.00;;
70049;SDS011;57391;51.306;22.680;2024-03-06T01:15:57;35.50;;;17.30;;
70049;SDS011;57391;51.306;22.680;2024-03-06T01:17:59;25.60;;;15.00;;
70049;SDS011;57391;51.306;22.680;2024-03-06T01:20:02;24.60;;;13.30;;
70049;SDS011;57391;51.306;22.680;2024-03-06T01:22:08;24.90;;;13.10;;
70049;SDS011;57391;51.306;22.680;2024-03-06T01:24:10;20.30;;;12.90;;
70049;SDS011;57391;51.306;22.680;2024-03-06T01:26:12;22.90;;;12.90;;
70049;SDS011;57391;51.306;22.680;2024-03-06T01:28:15;22.80;;;13.30;;
70049;SDS011;57391;51.306;22.680;2024-03-06T01:30:17;27.00;;;14.60;;
70049;SDS011;57391;51.306;22.680;2024-03-06T01:32:19;21.00;;;11.70;;
70049;SDS011;57391;51.306;22.680;2024-03-06T01:34:22;20.90;;;12.00;;
70049;SDS011;57391;51.306;22.680;2024-03-06T01:36:24;21.40;;;12.80;;
70049;SDS011;57391;51.306;22.680;2024-03-06T01:38:26;23.50;;;11.70;;
70049;SDS011;57391;51.306;22.680;2024-03-06T01:40:28;21.70;;;12.80;;
70049;SDS011;57391;51.306;22.680;2024-03-06T01:42:31;24.90;;;13.00;;
70049;SDS011;57391;51.306;22.680;2024-03-06T01:44:33;20.30;;;11.50;;
70049;SDS011;57391;51.306;22.680;2024-03-06T01:46:36;21.60;;;12.80;;
70049;SDS011;57391;51.306;22.680;2024-03-06T01:48:38;22.30;;;12.50;;
70049;SDS011;57391;51.306;22.680;2024-03-06T01:50:41;20.10;;;12.80;;
70049;SDS011;57391;51.306;22.680;2024-03-06T01:52:44;20.80;;;13.50;;
70049;SDS011;57391;51.306;22.680;2024-03-06T01:54:48;25.00;;;13.10;;
70049;SDS011;57391;51.306;22.680;2024-03-06T01:56:53;23.50;;;13.80;;
70049;SDS011;57391;51.306;22.680;2024-03-06T01:58:57;20.00;;;13.50;;
70049;SDS011;57391;51.306;22.680;2024-03-06T02:01:00;19.20;;;12.90;;
70049;SDS011;57391;51.306;22.680;2024-03-06T02:03:03;19.70;;;12.90;;
70049;SDS011;57391;51.306;22.680;2024-03-06T02:05:06;23.10;;;13.10;;
70049;SDS011;57391;51.306;22.680;2024-03-06T02:07:09;25.30;;;13.50;;
70049;SDS011;57391;51.306;22.680;2024-03-06T02:09:14;28.80;;;14.60;;
70049;SDS011;57391;51.306;22.680;2024-03-06T02:11:16;23.90;;;11.90;;
70049;SDS011;57391;51.306;22.680;2024-03-06T02:13:19;20.30;;;10.70;;
70049;SDS011;57391;51.306;22.680;2024-03-06T02:15:21;25.60;;;12.50;;
70049;SDS011;57391;51.306;22.680;2024-03-06T02:17:23;18.80;;;10.80;;
70049;SDS011;57391;51.306;22.680;2024-03-06T02:21:41;20.30;;;11.70;;
70049;SDS011;57391;51.306;22.680;2024-03-06T02:23:43;23.60;;;12.40;;
70049;SDS011;57391;51.306;22.680;2024-03-06T02:25:45;22.10;;;11.10;;
70049;SDS011;57391;51.306;22.680;2024-03-06T02:27:48;19.70;;;10.80;;
70049;SDS011;57391;51.306;22.680;2024-03-06T02:29:50;20.20;;;11.30;;
70049;SDS011;57391;51.306;22.680;2024-03-06T02:31:52;18.90;;;10.80;;
70049;SDS011;57391;51.306;22.680;2024-03-06T02:33:55;18.50;;;10.80;;
70049;SDS011;57391;51.306;22.680;2024-03-06T02:35:57;24.10;;;13.30;;
70049;SDS011;57391;51.306;22.680;2024-03-06T02:38:00;33.10;;;14.60;;
70049;SDS011;57391;51.306;22.680;2024-03-06T02:40:02;19.40;;;10.60;;
70049;SDS011;57391;51.306;22.680;2024-03-06T02:42:08;21.30;;;11.30;;
70049;SDS011;57391;51.306;22.680;2024-03-06T02:44:10;22.70;;;11.90;;
70049;SDS011;57391;51.306;22.680;2024-03-06T02:46:12;19.10;;;11.80;;
70049;SDS011;57391;51.306;22.680;2024-03-06T02:48:14;20.90;;;11.70;;
70049;SDS011;57391;51.306;22.680;2024-03-06T02:50:16;18.30;;;10.80;;
70049;SDS011;57391;51.306;22.680;2024-03-06T02:52:18;21.80;;;11.60;;
70049;SDS011;57391;51.306;22.680;2024-03-06T02:54:20;19.40;;;10.40;;
70049;SDS011;57391;51.306;22.680;2024-03-06T02:56:22;18.40;;;10.50;;
70049;SDS011;57391;51.306;22.680;2024-03-06T02:58:24;30.10;;;17.40;;
70049;SDS011;57391;51.306;22.680;2024-03-06T03:00:27;22.20;;;12.20;;
70049;SDS011;57391;51.306;22.680;2024-03-06T03:02:29;21.10;;;13.00;;
70049;SDS011;57391;51.306;22.680;2024-03-06T03:04:31;20.90;;;12.10;;
70049;SDS011;57391;51.306;22.680;2024-03-06T03:06:34;19.50;;;11.90;;
70049;SDS011;57391;51.306;22.680;2024-03-06T03:08:38;23.40;;;12.80;;
70049;SDS011;57391;51.306;22.680;2024-03-06T03:10:40;18.90;;;12.10;;
70049;SDS011;57391;51.306;22.680;2024-03-06T03:12:43;18.90;;;10.80;;
70049;SDS011;57391;51.306;22.680;2024-03-06T03:14:45;19.50;;;10.70;;
70049;SDS011;57391;51.306;22.680;2024-03-06T03:16:47;20.00;;;10.80;;
70049;SDS011;57391;51.306;22.680;2024-03-06T03:18:50;26.90;;;14.00;;
70049;SDS011;57391;51.306;22.680;2024-03-06T03:20:52;32.80;;;17.50;;
70049;SDS011;57391;51.306;22.680;2024-03-06T03:22:54;34.20;;;16.30;;
70049;SDS011;57391;51.306;22.680;2024-03-06T03:24:57;27.00;;;14.10;;
70049;SDS011;57391;51.306;22.680;2024-03-06T03:26:59;35.30;;;15.20;;
70049;SDS011;57391;51.306;22.680;2024-03-06T03:29:02;35.60;;;15.40;;
70049;SDS011;57391;51.306;22.680;2024-03-06T03:31:06;28.60;;;14.60;;
70049;SDS011;57391;51.306;22.680;2024-03-06T03:33:10;31.80;;;16.20;;
70049;SDS011;57391;51.306;22.680;2024-03-06T03:35:12;33.20;;;15.40;;
70049;SDS011;57391;51.306;22.680;2024-03-06T03:37:14;29.20;;;14.00;;
70049;SDS011;57391;51.306;22.680;2024-03-06T03:39:17;33.30;;;15.50;;
70049;SDS011;57391;51.306;22.680;2024-03-06T03:41:19;30.40;;;15.10;;
70049;SDS011;57391;51.306;22.680;2024-03-06T03:43:21;28.30;;;14.10;;
70049;SDS011;57391;51.306;22.680;2024-03-06T03:45:23;26.40;;;12.80;;
70049;SDS011;57391;51.306;22.680;2024-03-06T03:47:26;21.80;;;12.00;;
70049;SDS011;57391;51.306;22.680;2024-03-06T03:49:28;22.70;;;12.10;;
70049;SDS011;57391;51.306;22.680;2024-03-06T03:51:31;22.90;;;11.30;;
70049;SDS011;57391;51.306;22.680;2024-03-06T03:53:33;21.70;;;11.70;;
70049;SDS011;57391;51.306;22.680;2024-03-06T03:55:35;22.30;;;11.30;;
70049;SDS011;57391;51.306;22.680;2024-03-06T03:57:38;21.70;;;10.70;;
70049;SDS011;57391;51.306;22.680;2024-03-06T03:59:40;24.10;;;12.50;;
70049;SDS011;57391;51.306;22.680;2024-03-06T04:01:45;18.60;;;10.60;;
70049;SDS011;57391;51.306;22.680;2024-03-06T04:03:50;20.40;;;11.80;;
70049;SDS011;57391;51.306;22.680;2024-03-06T04:05:53;20.00;;;11.00;;
70049;SDS011;57391;51.306;22.680;2024-03-06T04:07:55;19.50;;;12.30;;
70049;SDS011;57391;51.306;22.680;2024-03-06T04:09:57;19.90;;;10.60;;
70049;SDS011;57391;51.306;22.680;2024-03-06T04:12:00;18.80;;;10.80;;
70049;SDS011;57391;51.306;22.680;2024-03-06T04:14:02;17.40;;;11.00;;
70049;SDS011;57391;51.306;22.680;2024-03-06T04:16:04;18.40;;;9.50;;
70049;SDS011;57391;51.306;22.680;2024-03-06T04:18:07;18.60;;;9.60;;
70049;SDS011;57391;51.306;22.680;2024-03-06T04:20:09;17.60;;;11.10;;
70049;SDS011;57391;51.306;22.680;2024-03-06T04:22:13;19.40;;;10.60;;
70049;SDS011;57391;51.306;22.680;2024-03-06T04:24:15;19.70;;;9.90;;
70049;SDS011;57391;51.306;22.680;2024-03-06T04:26:17;20.60;;;10.70;;
70049;SDS011;57391;51.306;22.680;2024-03-06T04:28:20;34.00;;;16.90;;
70049;SDS011;57391;51.306;22.680;2024-03-06T04:30:22;23.20;;;12.10;;
70049;SDS011;57391;51.306;22.680;2024-03-06T04:32:24;23.40;;;12.20;;
70049;SDS011;57391;51.306;22.680;2024-03-06T04:34:26;21.30;;;11.60;;
70049;SDS011;57391;51.306;22.680;2024-03-06T04:36:29;17.20;;;10.30;;
70049;SDS011;57391;51.306;22.680;2024-03-06T04:38:31;20.30;;;12.10;;
70049;SDS011;57391;51.306;22.680;2024-03-06T04:40:34;20.10;;;11.40;;
70049;SDS011;57391;51.306;22.680;2024-03-06T04:42:36;21.10;;;11.30;;
70049;SDS011;57391;51.306;22.680;2024-03-06T04:44:38;20.90;;;11.80;;
70049;SDS011;57391;51.306;22.680;2024-03-06T04:46:40;20.20;;;10.20;;
70049;SDS011;57391;51.306;22.680;2024-03-06T04:48:43;18.90;;;11.00;;
70049;SDS011;57391;51.306;22.680;2024-03-06T04:50:45;20.30;;;11.30;;
70049;SDS011;57391;51.306;22.680;2024-03-06T04:52:47;17.60;;;10.10;;
70049;SDS011;57391;51.306;22.680;2024-03-06T04:54:50;23.70;;;11.60;;
70049;SDS011;57391;51.306;22.680;2024-03-06T04:56:51;19.80;;;10.90;;
70049;SDS011;57391;51.306;22.680;2024-03-06T04:58:53;25.40;;;12.70;;
70049;SDS011;57391;51.306;22.680;2024-03-06T05:00:56;19.60;;;11.30;;
70049;SDS011;57391;51.306;22.680;2024-03-06T05:02:58;26.80;;;12.00;;
70049;SDS011;57391;51.306;22.680;2024-03-06T05:05:00;20.80;;;10.40;;
70049;SDS011;57391;51.306;22.680;2024-03-06T05:07:02;26.90;;;12.20;;
70049;SDS011;57391;51.306;22.680;2024-03-06T05:09:05;27.50;;;14.10;;
70049;SDS011;57391;51.306;22.680;2024-03-06T05:11:07;25.60;;;12.70;;
70049;SDS011;57391;51.306;22.680;2024-03-06T05:13:09;23.80;;;13.60;;
70049;SDS011;57391;51.306;22.680;2024-03-06T05:15:12;22.30;;;12.10;;
70049;SDS011;57391;51.306;22.680;2024-03-06T05:17:14;20.70;;;11.10;;
70049;SDS011;57391;51.306;22.680;2024-03-06T05:19:16;22.80;;;12.60;;
70049;SDS011;57391;51.306;22.680;2024-03-06T05:21:19;23.90;;;12.60;;
70049;SDS011;57391;51.306;22.680;2024-03-06T05:23:23;18.40;;;11.10;;
70049;SDS011;57391;51.306;22.680;2024-03-06T05:25:25;19.70;;;10.90;;
70049;SDS011;57391;51.306;22.680;2024-03-06T05:27:27;21.70;;;11.00;;
70049;SDS011;57391;51.306;22.680;2024-03-06T05:29:29;21.00;;;10.60;;
70049;SDS011;57391;51.306;22.680;2024-03-06T05:31:31;23.70;;;11.50;;
70049;SDS011;57391;51.306;22.680;2024-03-06T05:33:34;30.10;;;14.30;;
70049;SDS011;57391;51.306;22.680;2024-03-06T05:35:36;28.90;;;13.70;;
70049;SDS011;57391;51.306;22.680;2024-03-06T05:37:38;26.20;;;12.80;;
70049;SDS011;57391;51.306;22.680;2024-03-06T05:39:41;25.90;;;12.50;;
70049;SDS011;57391;51.306;22.680;2024-03-06T05:41:44;30.50;;;13.60;;
70049;SDS011;57391;51.306;22.680;2024-03-06T05:43:46;24.10;;;11.70;;
70049;SDS011;57391;51.306;22.680;2024-03-06T05:45:47;24.10;;;13.50;;
70049;SDS011;57391;51.306;22.680;2024-03-06T05:47:50;21.90;;;12.40;;
70049;SDS011;57391;51.306;22.680;2024-03-06T05:49:53;23.50;;;11.50;;
70049;SDS011;57391;51.306;22.680;2024-03-06T05:51:55;18.40;;;10.30;;
70049;SDS011;57391;51.306;22.680;2024-03-06T05:53:57;25.70;;;13.00;;
70049;SDS011;57391;51.306;22.680;2024-03-06T05:55:59;19.90;;;9.60;;
70049;SDS011;57391;51.306;22.680;2024-03-06T05:58:01;19.00;;;10.40;;
70049;SDS011;57391;51.306;22.680;2024-03-06T06:00:04;19.60;;;11.30;;
70049;SDS011;57391;51.306;22.680;2024-03-06T06:02:12;19.80;;;11.10;;
70049;SDS011;57391;51.306;22.680;2024-03-06T06:04:14;24.20;;;12.00;;
70049;SDS011;57391;51.306;22.680;2024-03-06T06:06:17;22.30;;;12.30;;
70049;SDS011;57391;51.306;22.680;2024-03-06T06:08:20;29.70;;;14.30;;
70049;SDS011;57391;51.306;22.680;2024-03-06T06:10:23;32.40;;;13.90;;
70049;SDS011;57391;51.306;22.680;2024-03-06T06:12:28;32.10;;;15.20;;
70049;SDS011;57391;51.306;22.680;2024-03-06T06:14:31;34.90;;;16.60;;
70049;SDS011;57391;51.306;22.680;2024-03-06T06:16:37;30.10;;;14.60;;
70049;SDS011;57391;51.306;22.680;2024-03-06T06:18:42;26.30;;;13.30;;
70049;SDS011;57391;51.306;22.680;2024-03-06T06:20:44;23.50;;;12.30;;
70049;SDS011;57391;51.306;22.680;2024-03-06T06:22:46;35.60;;;15.10;;
70049;SDS011;57391;51.306;22.680;2024-03-06T06:24:48;25.60;;;12.30;;
70049;SDS011;57391;51.306;22.680;2024-03-06T06:26:51;24.10;;;11.80;;
70049;SDS011;57391;51.306;22.680;2024-03-06T06:28:53;25.60;;;12.70;;
70049;SDS011;57391;51.306;22.680;2024-03-06T06:30:55;25.90;;;12.10;;
70049;SDS011;57391;51.306;22.680;2024-03-06T06:32:58;18.70;;;10.50;;
70049;SDS011;57391;51.306;22.680;2024-03-06T06:35:00;19.50;;;11.10;;
70049;SDS011;57391;51.306;22.680;2024-03-06T06:37:02;20.80;;;10.90;;
70049;SDS011;57391;51.306;22.680;2024-03-06T06:39:05;21.90;;;11.40;;
70049;SDS011;57391;51.306;22.680;2024-03-06T06:41:07;17.90;;;9.60;;
70049;SDS011;57391;51.306;22.680;2024-03-06T06:43:10;22.50;;;11.80;;
70049;SDS011;57391;51.306;22.680;2024-03-06T06:45:16;22.70;;;10.60;;
70049;SDS011;57391;51.306;22.680;2024-03-06T06:47:18;22.50;;;10.30;;
70049;SDS011;57391;51.306;22.680;2024-03-06T06:49:20;21.70;;;11.10;;
70049;SDS011;57391;51.306;22.680;2024-03-06T06:51:23;21.20;;;10.80;;
70049;SDS011;57391;51.306;22.680;2024-03-06T06:53:25;18.00;;;9.30;;
70049;SDS011;57391;51.306;22.680;2024-03-06T06:55:27;21.60;;;10.40;;
70049;SDS011;57391;51.306;22.680;2024-03-06T06:57:30;18.30;;;9.90;;
70049;SDS011;57391;51.306;22.680;2024-03-06T06:59:32;20.70;;;10.20;;
70049;SDS011;57391;51.306;22.680;2024-03-06T07:01:34;17.60;;;9.90;;
70049;SDS011;57391;51.306;22.680;2024-03-06T07:03:36;26.10;;;12.90;;
70049;SDS011;57391;51.306;22.680;2024-03-06T07:05:39;22.20;;;10.70;;
70049;SDS011;57391;51.306;22.680;2024-03-06T07:07:43;23.70;;;12.30;;
70049;SDS011;57391;51.306;22.680;2024-03-06T07:09:45;23.40;;;11.60;;
70049;SDS011;57391;51.306;22.680;2024-03-06T07:11:47;20.50;;;10.10;;
70049;SDS011;57391;51.306;22.680;2024-03-06T07:13:49;22.10;;;10.80;;
70049;SDS011;57391;51.306;22.680;2024-03-06T07:15:52;23.70;;;10.90;;
70049;SDS011;57391;51.306;22.680;2024-03-06T07:17:54;19.30;;;11.80;;
70049;SDS011;57391;51.306;22.680;2024-03-06T07:19:57;19.60;;;10.90;;
70049;SDS011;57391;51.306;22.680;2024-03-06T07:21:59;21.40;;;10.80;;
70049;SDS011;57391;51.306;22.680;2024-03-06T07:24:01;23.30;;;11.40;;
70049;SDS011;57391;51.306;22.680;2024-03-06T07:27:21;17.40;;;10.00;;
70049;SDS011;57391;51.306;22.680;2024-03-06T07:29:22;18.80;;;10.90;;
70049;SDS011;57391;51.306;22.680;2024-03-06T07:41:59;19.30;;;9.20;;
70049;SDS011;57391;51.306;22.680;2024-03-06T07:44:02;17.20;;;9.60;;
70049;SDS011;57391;51.306;22.680;2024-03-06T07:46:04;18.30;;;10.30;;
70049;SDS011;57391;51.306;22.680;2024-03-06T07:48:11;18.00;;;9.70;;
70049;SDS011;57391;51.306;22.680;2024-03-06T07:50:13;17.80;;;9.70;;
70049;SDS011;57391;51.306;22.680;2024-03-06T07:52:20;15.80;;;8.30;;
70049;SDS011;57391;51.306;22.680;2024-03-06T07:54:22;17.50;;;9.00;;
70049;SDS011;57391;51.306;22.680;2024-03-06T07:56:23;15.20;;;8.90;;
70049;SDS011;57391;51.306;22.680;2024-03-06T07:58:25;16.70;;;9.10;;
70049;SDS011;57391;51.306;22.680;2024-03-06T08:00:26;15.80;;;9.40;;
70049;SDS011;57391;51.306;22.680;2024-03-06T08:02:27;14.80;;;8.40;;
70049;SDS011;57391;51.306;22.680;2024-03-06T08:04:28;16.40;;;10.00;;
70049;SDS011;57391;51.306;22.680;2024-03-06T08:06:29;14.30;;;7.60;;
70049;SDS011;57391;51.306;22.680;2024-03-06T08:08:32;16.80;;;9.50;;
70049;SDS011;57391;51.306;22.680;2024-03-06T08:10:33;19.80;;;10.90;;
70049;SDS011;57391;51.306;22.680;2024-03-06T08:12:34;18.30;;;9.20;;
70049;SDS011;57391;51.306;22.680;2024-03-06T08:14:35;14.10;;;7.40;;
70049;SDS011;57391;51.306;22.680;2024-03-06T08:16:36;13.30;;;7.20;;
70049;SDS011;57391;51.306;22.680;2024-03-06T08:18:38;16.30;;;9.00;;
70049;SDS011;57391;51.306;22.680;2024-03-06T08:20:39;16.90;;;9.00;;
70049;SDS011;57391;51.306;22.680;2024-03-06T08:22:41;13.70;;;7.60;;
70049;SDS011;57391;51.306;22.680;2024-03-06T08:24:43;14.20;;;8.30;;
70049;SDS011;57391;51.306;22.680;2024-03-06T08:26:44;15.10;;;8.30;;
70049;SDS011;57391;51.306;22.680;2024-03-06T08:28:45;12.70;;;7.50;;
70049;SDS011;57391;51.306;22.680;2024-03-06T08:30:46;11.30;;;6.40;;
70049;SDS011;57391;51.306;22.680;2024-03-06T08:32:46;14.70;;;8.40;;
70049;SDS011;57391;51.306;22.680;2024-03-06T08:34:51;13.10;;;6.90;;
70049;SDS011;57391;51.306;22.680;2024-03-06T08:36:52;13.70;;;6.60;;
70049;SDS011;57391;51.306;22.680;2024-03-06T08:39:15;12.40;;;7.10;;
70049;SDS011;57391;51.306;22.680;2024-03-06T08:41:17;15.20;;;8.20;;
70049;SDS011;57391;51.306;22.680;2024-03-06T08:43:18;12.80;;;7.40;;
70049;SDS011;57391;51.306;22.680;2024-03-06T08:45:20;14.20;;;7.40;;
70049;SDS011;57391;51.306;22.680;2024-03-06T08:47:21;12.60;;;8.10;;
70049;SDS011;57391;51.306;22.680;2024-03-06T08:49:22;13.20;;;7.30;;
70049;SDS011;57391;51.306;22.680;2024-03-06T08:51:23;16.10;;;8.20;;
70049;SDS011;57391;51.306;22.680;2024-03-06T08:53:26;16.80;;;8.20;;
70049;SDS011;57391;51.306;22.680;2024-03-06T08:55:27;16.30;;;9.30;;
70049;SDS011;57391;51.306;22.680;2024-03-06T08:57:28;14.80;;;8.20;;
70049;SDS011;57391;51.306;22.680;2024-03-06T08:59:32;11.60;;;6.50;;
70049;SDS011;57391;51.306;22.680;2024-03-06T09:01:33;12.90;;;8.00;;
70049;SDS011;57391;51.306;22.680;2024-03-06T09:03:34;15.00;;;8.00;;
70049;SDS011;57391;51.306;22.680;2024-03-06T09:05:36;13.40;;;7.20;;
70049;SDS011;57391;51.306;22.680;2024-03-06T09:07:37;13.60;;;7.00;;
70049;SDS011;57391;51.306;22.680;2024-03-06T09:09:39;13.00;;;7.80;;
70049;SDS011;57391;51.306;22.680;2024-03-06T09:11:43;13.10;;;6.80;;
70049;SDS011;57391;51.306;22.680;2024-03-06T09:13:44;13.30;;;7.70;;
70049;SDS011;57391;51.306;22.680;2024-03-06T09:15:46;13.70;;;8.20;;
70049;SDS011;57391;51.306;22.680;2024-03-06T09:17:46;14.20;;;7.50;;
70049;SDS011;57391;51.306;22.680;2024-03-06T09:19:47;14.20;;;7.80;;
70049;SDS011;57391;51.306;22.680;2024-03-06T09:21:49;11.70;;;6.90;;
70049;SDS011;57391;51.306;22.680;2024-03-06T09:23:50;12.60;;;7.40;;
70049;SDS011;57391;51.306;22.680;2024-03-06T09:25:52;23.00;;;10.30;;
70049;SDS011;57391;51.306;22.680;2024-03-06T09:27:54;12.70;;;7.50;;
70049;SDS011;57391;51.306;22.680;2024-03-06T09:29:55;11.50;;;6.60;;
70049;SDS011;57391;51.306;22.680;2024-03-06T09:31:57;10.50;;;6.20;;
70049;SDS011;57391;51.306;22.680;2024-03-06T09:33:59;10.90;;;6.10;;
70049;SDS011;57391;51.306;22.680;2024-03-06T09:36:01;13.40;;;7.50;;
70049;SDS011;57391;51.306;22.680;2024-03-06T09:38:03;13.20;;;7.60;;
70049;SDS011;57391;51.306;22.680;2024-03-06T09:40:05;10.00;;;5.40;;
70049;SDS011;57391;51.306;22.680;2024-03-06T09:42:08;12.20;;;6.40;;
70049;SDS011;57391;51.306;22.680;2024-03-06T09:44:09;11.70;;;7.00;;
70049;SDS011;57391;51.306;22.680;2024-03-06T09:46:10;12.20;;;7.80;;
70049;SDS011;57391;51.306;22.680;2024-03-06T09:48:12;11.40;;;6.80;;
70049;SDS011;57391;51.306;22.680;2024-03-06T09:50:16;10.90;;;6.30;;
70049;SDS011;57391;51.306;22.680;2024-03-06T09:52:23;11.80;;;6.60;;
70049;SDS011;57391;51.306;22.680;2024-03-06T10:03:40;12.20;;;5.90;;
70049;SDS011;57391;51.306;22.680;2024-03-06T10:05:44;11.30;;;5.90;;
70049;SDS011;57391;51.306;22.680;2024-03-06T10:07:46;11.50;;;6.30;;
70049;SDS011;57391;51.306;22.680;2024-03-06T10:09:48;13.00;;;6.20;;
70049;SDS011;57391;51.306;22.680;2024-03-06T10:11:50;12.40;;;6.70;;
70049;SDS011;57391;51.306;22.680;2024-03-06T10:13:54;10.10;;;5.90;;
70049;SDS011;57391;51.306;22.680;2024-03-06T10:26:16;12.70;;;6.60;;
70049;SDS011;57391;51.306;22.680;2024-03-06T10:28:19;15.70;;;7.30;;
70049;SDS011;57391;51.306;22.680;2024-03-06T10:30:22;15.00;;;7.10;;
70049;SDS011;57391;51.306;22.680;2024-03-06T10:32:24;27.10;;;12.10;;
70049;SDS011;57391;51.306;22.680;2024-03-06T10:34:29;16.80;;;7.70;;
70049;SDS011;57391;51.306;22.680;2024-03-06T10:36:41;30.60;;;12.90;;
70049;SDS011;57391;51.306;22.680;2024-03-06T10:38:44;22.60;;;10.10;;
70049;SDS011;57391;51.306;22.680;2024-03-06T10:40:50;19.50;;;9.10;;
70049;SDS011;57391;51.306;22.680;2024-03-06T10:42:52;16.70;;;7.60;;
70049;SDS011;57391;51.306;22.680;2024-03-06T10:44:55;13.50;;;7.30;;
70049;SDS011;57391;51.306;22.680;2024-03-06T10:47:05;15.00;;;7.00;;
70049;SDS011;57391;51.306;22.680;2024-03-06T10:49:07;13.20;;;6.70;;
70049;SDS011;57391;51.306;22.680;2024-03-06T10:51:10;15.90;;;7.80;;
70049;SDS011;57391;51.306;22.680;2024-03-06T10:53:16;19.30;;;8.90;;
70049;SDS011;57391;51.306;22.680;2024-03-06T10:55:21;19.00;;;7.30;;
70049;SDS011;57391;51.306;22.680;2024-03-06T10:57:24;16.30;;;7.50;;
70049;SDS011;57391;51.306;22.680;2024-03-06T10:59:28;17.50;;;8.10;;
70049;SDS011;57391;51.306;22.680;2024-03-06T11:01:30;16.90;;;7.20;;
70049;SDS011;57391;51.306;22.680;2024-03-06T11:03:33;16.20;;;7.80;;
70049;SDS011;57391;51.306;22.680;2024-03-06T11:05:36;14.80;;;6.60;;
70049;SDS011;57391;51.306;22.680;2024-03-06T11:07:40;15.20;;;7.00;;
70049;SDS011;57391;51.306;22.680;2024-03-06T11:09:41;14.80;;;6.80;;
70049;SDS011;57391;51.306;22.680;2024-03-06T11:11:50;21.00;;;9.00;;
70049;SDS011;57391;51.306;22.680;2024-03-06T11:14:00;14.50;;;7.50;;
70049;SDS011;57391;51.306;22.680;2024-03-06T11:16:04;14.70;;;6.90;;
70049;SDS011;57391;51.306;22.680;2024-03-06T11:20:33;20.20;;;9.90;;
70049;SDS011;57391;51.306;22.680;2024-03-06T11:25:01;17.70;;;12.90;;
70049;SDS011;57391;51.306;22.680;2024-03-06T11:27:03;16.70;;;10.10;;
70049;SDS011;57391;51.306;22.680;2024-03-06T11:29:09;13.60;;;7.70;;
70049;SDS011;57391;51.306;22.680;2024-03-06T11:31:10;12.90;;;6.40;;
70049;SDS011;57391;51.306;22.680;2024-03-06T11:33:19;10.10;;;6.20;;
70049;SDS011;57391;51.306;22.680;2024-03-06T11:35:21;12.60;;;7.10;;
70049;SDS011;57391;51.306;22.680;2024-03-06T11:37:22;16.40;;;9.20;;
70049;SDS011;57391;51.306;22.680;2024-03-06T11:39:28;13.20;;;7.30;;
70049;SDS011;57391;51.306;22.680;2024-03-06T11:43:42;15.60;;;8.00;;
70049;SDS011;57391;51.306;22.680;2024-03-06T11:45:44;13.70;;;7.00;;
70049;SDS011;57391;51.306;22.680;2024-03-06T11:48:03;10.20;;;5.30;;
70049;SDS011;57391;51.306;22.680;2024-03-06T11:50:06;10.40;;;5.40;;
70049;SDS011;57391;51.306;22.680;2024-03-06T11:52:09;18.70;;;9.60;;
70049;SDS011;57391;51.306;22.680;2024-03-06T11:54:10;18.60;;;7.30;;
70049;SDS011;57391;51.306;22.680;2024-03-06T11:56:12;14.70;;;6.80;;
70049;SDS011;57391;51.306;22.680;2024-03-06T11:58:13;16.30;;;8.70;;
70049;SDS011;57391;51.306;22.680;2024-03-06T12:00:15;20.80;;;9.40;;
70049;SDS011;57391;51.306;22.680;2024-03-06T12:02:21;19.20;;;8.80;;
70049;SDS011;57391;51.306;22.680;2024-03-06T12:04:23;14.20;;;7.30;;
70049;SDS011;57391;51.306;22.680;2024-03-06T12:06:27;20.60;;;10.00;;
70049;SDS011;57391;51.306;22.680;2024-03-06T12:08:28;15.40;;;7.70;;
70049;SDS011;57391;51.306;22.680;2024-03-06T12:10:30;14.50;;;7.30;;
70049;SDS011;57391;51.306;22.680;2024-03-06T12:12:32;12.80;;;6.60;;
70049;SDS011;57391;51.306;22.680;2024-03-06T12:14:35;13.80;;;6.60;;
70049;SDS011;57391;51.306;22.680;2024-03-06T12:16:36;13.60;;;7.10;;
70049;SDS011;57391;51.306;22.680;2024-03-06T12:18:37;14.30;;;7.30;;
70049;SDS011;57391;51.306;22.680;2024-03-06T12:20:42;13.70;;;7.40;;
70049;SDS011;57391;51.306;22.680;2024-03-06T12:22:49;13.10;;;6.70;;
70049;SDS011;57391;51.306;22.680;2024-03-06T12:24:59;14.80;;;7.20;;
70049;SDS011;57391;51.306;22.680;2024-03-06T12:27:02;18.00;;;9.40;;
70049;SDS011;57391;51.306;22.680;2024-03-06T12:33:06;12.30;;;6.70;;
70049;SDS011;57391;51.306;22.680;2024-03-06T12:35:06;13.90;;;6.60;;